Time;durP1;ratioP1;P1;durP2;ratioP2;P2;SDS_P1;SDS_P2;PMS_P1;PMS_P2;Temp;Humidity;BMP_temperature;BMP_pressure;BME280_temperature;BME280_humidity;BME280_pressure;Samples;Min_cycle;Max_cycle;Signal;HPM_P1;HPM_P2
2023/03/31 00:00:29;;;;;;;2.90;0.52;;;12.70;80.60;;;;;;4967944;28;92480;-70
2023/03/31 00:02:57;;;;;;;2.45;0.57;;;12.70;80.90;;;;;;4970103;28;95012;-71
2023/03/31 00:05:26;;;;;;;2.33;0.45;;;12.70;80.90;;;;;;4967800;28;92483;-71
2023/03/31 00:08:02;;;;;;;2.08;0.30;;;12.70;80.90;;;;;;4979266;28;92632;-70
2023/03/31 00:10:30;;;;;;;2.17;0.40;;;12.70;80.70;;;;;;4970315;28;92850;-72
2023/03/31 00:12:57;;;;;;;2.35;0.25;;;12.70;80.50;;;;;;4962969;28;92156;-70
2023/03/31 00:15:22;;;;;;;1.83;0.28;;;12.70;80.20;;;;;;4975510;28;92558;-72
2023/03/31 00:17:48;;;;;;;1.55;0.30;;;12.70;80.00;;;;;;4975590;28;93450;-71
2023/03/31 00:20:14;;;;;;;4.63;0.20;;;12.70;81.10;;;;;;4978673;28;92305;-71
2023/03/31 00:22:46;;;;;;;1.67;0.15;;;12.80;80.20;;;;;;4972464;28;92415;-70
2023/03/31 00:25:13;;;;;;;2.05;0.30;;;12.80;79.60;;;;;;4975076;28;92451;-71
2023/03/31 00:27:43;;;;;;;1.27;0.20;;;12.80;80.10;;;;;;4973974;28;94068;-70
2023/03/31 00:30:09;;;;;;;2.63;0.60;;;12.70;79.70;;;;;;4965885;28;93896;-70
2023/03/31 00:32:35;;;;;;;2.22;0.30;;;12.70;79.90;;;;;;4993433;28;92380;-71
2023/03/31 00:35:01;;;;;;;2.28;0.20;;;12.70;79.80;;;;;;4992003;28;92219;-70
2023/03/31 00:37:28;;;;;;;3.28;0.50;;;12.70;79.90;;;;;;4994861;28;93619;-71
2023/03/31 00:39:54;;;;;;;1.42;0.22;;;12.60;80.30;;;;;;4990373;28;92854;-71
2023/03/31 00:42:20;;;;;;;3.03;0.45;;;12.50;80.40;;;;;;4974709;28;93103;-72
2023/03/31 00:45:26;;;;;;;4.38;0.50;;;12.50;80.60;;;;;;4979018;28;91827;-70
2023/03/31 00:48:12;;;;;;;2.22;0.55;;;12.50;80.50;;;;;;5013996;28;93553;-71
2023/03/31 00:50:55;;;;;;;2.83;0.20;;;12.50;80.60;;;;;;5017644;28;92876;-71
2023/03/31 00:53:25;;;;;;;4.60;0.20;;;12.50;80.50;;;;;;4984995;28;93480;-71
2023/03/31 00:55:51;;;;;;;;;;;12.50;80.00;;;;;;4983351;28;92345;-70
2023/03/31 00:58:20;;;;;;;2.33;0.20;;;12.60;79.70;;;;;;4980434;28;93022;-72
2023/03/31 01:00:51;;;;;;;3.33;0.30;;;12.60;78.90;;;;;;4973884;28;94197;-71
2023/03/31 01:03:18;;;;;;;2.90;0.30;;;12.60;79.00;;;;;;4984456;28;92440;-71
2023/03/31 01:05:46;;;;;;;2.90;0.32;;;12.60;79.20;;;;;;4975013;28;92644;-71
2023/03/31 01:08:13;;;;;;;2.63;0.35;;;12.60;79.30;;;;;;4976277;28;92745;-71
2023/03/31 01:10:51;;;;;;;3.50;0.30;;;12.50;79.40;;;;;;4975663;28;92389;-71
2023/03/31 01:13:18;;;;;;;3.00;0.30;;;12.50;79.60;;;;;;4971404;28;92595;-72
2023/03/31 01:15:44;;;;;;;1.75;0.22;;;12.40;79.50;;;;;;4966702;28;92163;-71
2023/03/31 01:18:11;;;;;;;1.80;0.20;;;12.40;80.10;;;;;;4972816;28;94650;-71
2023/03/31 01:21:17;;;;;;;2.25;0.30;;;12.40;80.00;;;;;;4973875;28;92892;-70
2023/03/31 01:24:01;;;;;;;3.13;0.32;;;12.30;80.30;;;;;;4988496;28;93530;-70
2023/03/31 01:26:48;;;;;;;2.10;0.32;;;12.30;80.20;;;;;;4974986;28;92730;-70
2023/03/31 01:29:17;;;;;;;1.25;0.32;;;12.30;80.80;;;;;;4973522;28;92689;-70
2023/03/31 01:31:52;;;;;;;2.20;0.38;;;12.30;80.60;;;;;;4977332;28;93422;-70
2023/03/31 01:34:45;;;;;;;2.72;0.40;;;12.20;80.20;;;;;;4996285;28;92573;-72
2023/03/31 01:37:29;;;;;;;1.65;0.45;;;12.20;80.00;;;;;;4976120;28;92587;-73
2023/03/31 01:40:33;;;;;;;4.53;0.40;;;12.30;80.00;;;;;;4967688;28;93539;-69
2023/03/31 01:43:36;;;;;;;2.67;0.32;;;12.20;80.90;;;;;;4957575;28;94068;-69
2023/03/31 01:46:22;;;;;;;2.08;0.40;;;12.30;79.70;;;;;;4974176;28;93593;-69
2023/03/31 01:48:54;;;;;;;2.20;0.40;;;12.20;80.20;;;;;;4968720;28;92637;-70
2023/03/31 01:51:25;;;;;;;1.88;0.30;;;12.20;80.70;;;;;;4986753;28;93883;-69
2023/03/31 01:54:26;;;;;;;4.55;0.20;;;12.20;80.10;;;;;;4996302;28;92848;-70
2023/03/31 01:57:16;;;;;;;2.80;0.20;;;12.20;80.30;;;;;;4978193;28;92676;-70
2023/03/31 02:00:10;;;;;;;1.65;0.20;;;12.20;80.30;;;;;;4996609;28;92904;-71
2023/03/31 02:03:02;;;;;;;2.35;0.20;;;12.20;79.80;;;;;;4968042;28;92576;-68
2023/03/31 02:05:35;;;;;;;2.75;0.30;;;12.30;79.40;;;;;;4979976;28;92880;-72
2023/03/31 02:08:14;;;;;;;2.15;0.20;;;12.30;79.20;;;;;;4971442;28;92452;-70
2023/03/31 02:10:43;;;;;;;1.67;0.30;;;12.30;78.50;;;;;;4967921;28;92231;-71
2023/03/31 02:13:12;;;;;;;1.90;0.30;;;12.30;78.00;;;;;;4985905;28;93702;-71
2023/03/31 02:15:41;;;;;;;1.15;0.20;;;12.40;77.80;;;;;;4979486;28;93230;-69
2023/03/31 02:18:11;;;;;;;2.03;0.32;;;12.40;77.20;;;;;;4978070;28;92417;-72
2023/03/31 02:20:45;;;;;;;2.63;0.25;;;12.50;77.60;;;;;;4974000;28;92464;-71
2023/03/31 02:23:14;;;;;;;1.30;0.30;;;12.50;77.10;;;;;;4978129;28;93185;-70
2023/03/31 02:25:48;;;;;;;2.25;0.20;;;12.60;77.00;;;;;;4977983;28;93424;-70
2023/03/31 02:28:21;;;;;;;1.60;0.20;;;12.60;77.20;;;;;;4964962;28;92445;-69
2023/03/31 02:31:17;;;;;;;3.30;0.20;;;12.60;77.20;;;;;;4970452;28;91812;-69
2023/03/31 02:33:43;;;;;;;3.55;0.20;;;12.60;77.30;;;;;;4989989;28;93228;-69
2023/03/31 02:36:09;;;;;;;4.47;0.85;;;12.50;77.90;;;;;;4995643;28;92678;-69
2023/03/31 02:38:40;;;;;;;3.30;0.30;;;12.60;77.60;;;;;;4996417;28;93476;-71
2023/03/31 02:41:06;;;;;;;3.53;0.30;;;12.50;77.40;;;;;;4986696;28;92275;-72
2023/03/31 02:43:32;;;;;;;2.03;0.35;;;12.60;77.10;;;;;;4976331;28;93179;-70
2023/03/31 02:45:58;;;;;;;2.55;0.50;;;12.60;76.40;;;;;;4976772;28;92598;-71
2023/03/31 02:48:31;;;;;;;4.38;0.30;;;12.60;76.40;;;;;;4996224;28;92485;-71
2023/03/31 02:51:21;;;;;;;3.30;0.30;;;12.70;76.10;;;;;;4987102;28;93203;-73
2023/03/31 02:53:59;;;;;;;1.60;0.30;;;12.80;76.00;;;;;;4971350;28;93084;-71
2023/03/31 02:56:56;;;;;;;3.67;0.47;;;12.80;75.90;;;;;;4976702;28;92809;-70
2023/03/31 02:59:44;;;;;;;3.95;0.32;;;12.80;76.00;;;;;;4970663;28;92445;-69
2023/03/31 03:02:15;;;;;;;3.15;0.20;;;12.80;76.70;;;;;;4961598;28;92465;-71
2023/03/31 03:05:10;;;;;;;2.38;0.22;;;12.80;77.10;;;;;;4969663;28;94307;-71
2023/03/31 03:08:03;;;;;;;2.30;0.35;;;12.70;78.30;;;;;;4967385;28;94114;-70
2023/03/31 03:10:48;;;;;;;2.05;0.35;;;12.70;79.10;;;;;;4965709;28;92666;-72
2023/03/31 03:13:46;;;;;;;2.60;0.25;;;12.50;79.80;;;;;;4976938;28;92374;-71
2023/03/31 03:16:20;;;;;;;4.03;0.43;;;12.50;79.40;;;;;;4975646;28;93756;-72
2023/03/31 03:19:06;;;;;;;2.92;0.25;;;12.30;80.40;;;;;;4974512;28;93579;-70
2023/03/31 03:21:32;;;;;;;3.88;0.30;;;12.20;80.00;;;;;;4975844;28;92495;-71
2023/03/31 03:23:59;;;;;;;1.88;0.32;;;12.20;80.20;;;;;;4976730;28;91620;-71
2023/03/31 03:26:26;;;;;;;2.33;0.40;;;12.10;80.30;;;;;;4980455;28;94136;-71
2023/03/31 03:28:56;;;;;;;3.13;0.38;;;12.10;80.90;;;;;;4968906;28;93658;-71
2023/03/31 03:31:22;;;;;;;2.65;0.43;;;12.00;80.90;;;;;;4969040;28;93457;-72
2023/03/31 03:33:52;;;;;;;1.92;0.40;;;12.10;80.60;;;;;;4990615;28;92561;-71
2023/03/31 03:36:18;;;;;;;4.47;0.40;;;12.00;80.40;;;;;;4987095;28;92699;-72
2023/03/31 03:38:44;;;;;;;2.65;0.30;;;12.00;80.80;;;;;;4970323;28;92780;-71
2023/03/31 03:41:10;;;;;;;2.38;0.30;;;11.90;80.90;;;;;;4973859;28;92480;-71
2023/03/31 03:43:35;;;;;;;2.65;0.40;;;11.80;81.30;;;;;;4964573;28;92713;-71
2023/03/31 03:46:01;;;;;;;1.52;0.30;;;11.80;81.40;;;;;;4981621;28;93195;-71
2023/03/31 03:48:27;;;;;;;1.48;0.30;;;11.70;80.90;;;;;;4985581;28;92872;-70
2023/03/31 03:50:53;;;;;;;3.83;0.43;;;11.70;80.90;;;;;;4969293;28;92548;-72
2023/03/31 03:53:19;;;;;;;2.92;0.30;;;11.60;81.60;;;;;;4973534;28;92656;-70
2023/03/31 03:55:48;;;;;;;2.22;0.30;;;11.50;81.20;;;;;;4981171;28;94014;-74
2023/03/31 03:58:16;;;;;;;2.58;0.30;;;11.50;81.60;;;;;;4987702;28;93857;-70
2023/03/31 04:00:42;;;;;;;2.58;0.30;;;11.50;81.30;;;;;;4976076;28;92072;-72
2023/03/31 04:03:07;;;;;;;2.25;0.20;;;11.50;80.80;;;;;;4976040;28;92110;-71
2023/03/31 04:05:33;;;;;;;7.53;0.35;;;11.50;80.80;;;;;;4975335;28;92744;-70
2023/03/31 04:07:59;;;;;;;4.45;0.40;;;11.50;80.10;;;;;;4987184;28;92634;-72
2023/03/31 04:10:25;;;;;;;2.08;0.30;;;11.50;80.30;;;;;;4972351;28;93115;-71
2023/03/31 04:12:50;;;;;;;1.77;0.28;;;11.50;80.20;;;;;;4965375;28;93011;-72
2023/03/31 04:15:16;;;;;;;3.28;0.40;;;11.60;80.50;;;;;;4969687;28;92670;-71
2023/03/31 04:17:49;;;;;;;11.05;0.40;;;11.60;78.70;;;;;;4983005;28;93725;-71
2023/03/31 04:20:16;;;;;;;3.17;0.38;;;11.70;78.10;;;;;;4984282;28;93325;-73
2023/03/31 04:22:45;;;;;;;1.67;0.30;;;11.70;76.70;;;;;;4978716;28;92375;-72
2023/03/31 04:25:15;;;;;;;3.20;0.30;;;11.80;77.70;;;;;;4975451;28;92613;-71
2023/03/31 04:27:49;;;;;;;1.15;0.20;;;11.80;76.90;;;;;;4970115;28;92968;-72
2023/03/31 04:30:21;;;;;;;2.00;0.30;;;11.80;76.70;;;;;;4967684;28;92582;-71
2023/03/31 04:32:52;;;;;;;3.15;0.47;;;11.80;76.90;;;;;;4985662;28;92754;-71
2023/03/31 04:35:19;;;;;;;3.42;0.50;;;11.80;76.70;;;;;;4977058;28;93125;-70
2023/03/31 04:37:49;;;;;;;1.02;0.20;;;11.70;76.10;;;;;;4983767;28;93378;-71
2023/03/31 04:40:16;;;;;;;;;;;11.70;75.80;;;;;;4972939;28;92889;-72
2023/03/31 04:42:42;;;;;;;2.63;0.30;;;11.80;75.30;;;;;;4974629;28;92378;-71
2023/03/31 04:45:09;;;;;;;2.53;0.20;;;11.90;75.90;;;;;;4977066;28;93633;-70
2023/03/31 04:47:36;;;;;;;1.73;0.28;;;11.90;75.70;;;;;;4978797;28;93380;-71
2023/03/31 04:50:01;;;;;;;1.10;0.20;;;12.00;73.10;;;;;;4988121;28;92733;-71
2023/03/31 04:52:27;;;;;;;2.80;0.25;;;12.20;72.50;;;;;;4973043;28;92086;-71
2023/03/31 04:54:53;;;;;;;1.73;0.20;;;12.30;72.30;;;;;;4972665;28;93271;-71
2023/03/31 04:57:18;;;;;;;2.35;0.25;;;12.40;70.90;;;;;;4967337;28;94845;-70
2023/03/31 04:59:44;;;;;;;1.75;0.20;;;12.50;70.20;;;;;;4973653;28;92382;-71
2023/03/31 05:02:10;;;;;;;1.40;0.20;;;12.50;70.50;;;;;;4967117;28;91716;-71
2023/03/31 05:04:36;;;;;;;2.75;0.38;;;12.60;70.90;;;;;;4970802;28;93244;-72
2023/03/31 05:07:02;;;;;;;1.63;0.30;;;12.60;70.80;;;;;;4960120;28;93415;-71
2023/03/31 05:09:28;;;;;;;2.70;0.25;;;12.60;70.60;;;;;;4973223;28;93587;-71
2023/03/31 05:11:55;;;;;;;3.45;0.10;;;12.70;70.60;;;;;;4971429;28;92551;-71
2023/03/31 05:14:21;;;;;;;1.83;0.20;;;12.70;68.70;;;;;;4975722;28;92455;-72
2023/03/31 05:16:46;;;;;;;3.97;0.20;;;12.80;70.40;;;;;;4967305;28;92974;-71
2023/03/31 05:19:12;;;;;;;3.17;0.32;;;12.90;68.90;;;;;;4966606;28;92432;-71
2023/03/31 05:21:38;;;;;;;2.40;0.20;;;12.90;69.30;;;;;;4975237;28;92741;-71
2023/03/31 05:24:03;;;;;;;1.20;0.30;;;13.00;67.80;;;;;;4964303;28;96494;-72
2023/03/31 05:26:29;;;;;;;1.50;0.13;;;13.10;66.50;;;;;;4963570;28;93190;-72
2023/03/31 05:28:55;;;;;;;1.75;0.20;;;13.20;66.50;;;;;;4973256;28;92111;-71
2023/03/31 05:31:21;;;;;;;1.17;0.22;;;13.30;67.00;;;;;;4965161;28;92449;-71
2023/03/31 05:33:46;;;;;;;1.80;0.30;;;13.40;66.90;;;;;;4972894;28;95334;-70
2023/03/31 05:36:15;;;;;;;1.85;0.22;;;13.30;66.40;;;;;;4969721;28;93052;-71
2023/03/31 05:38:41;;;;;;;2.13;0.40;;;13.40;66.30;;;;;;4977966;28;93374;-71
2023/03/31 05:41:08;;;;;;;3.47;0.20;;;13.50;64.50;;;;;;4979399;28;92534;-70
2023/03/31 05:43:34;;;;;;;2.33;0.22;;;13.50;64.30;;;;;;4969844;28;92642;-71
2023/03/31 05:46:01;;;;;;;2.92;0.20;;;13.60;65.50;;;;;;4976454;28;93106;-72
2023/03/31 05:48:26;;;;;;;1.75;0.20;;;13.70;64.20;;;;;;4968793;28;92315;-71
2023/03/31 05:50:59;;;;;;;1.33;0.20;;;13.70;63.80;;;;;;4965532;28;91855;-70
2023/03/31 05:53:25;;;;;;;1.83;0.15;;;13.70;65.70;;;;;;4961205;28;93858;-71
2023/03/31 05:56:00;;;;;;;4.47;0.30;;;13.80;65.30;;;;;;4970781;28;93654;-71
2023/03/31 05:58:27;;;;;;;0.70;0.10;;;13.80;65.10;;;;;;4973901;28;93269;-74
2023/03/31 06:01:12;;;;;;;2.58;0.20;;;13.90;64.00;;;;;;4973444;28;92236;-71
2023/03/31 06:03:41;;;;;;;1.15;0.20;;;13.90;64.40;;;;;;4959464;28;92748;-72
2023/03/31 06:06:08;;;;;;;1.30;0.38;;;13.90;65.90;;;;;;4975550;28;93503;-71
2023/03/31 06:08:34;;;;;;;1.63;0.20;;;13.90;63.20;;;;;;4968353;28;94008;-71
2023/03/31 06:11:04;;;;;;;3.25;0.30;;;14.00;61.90;;;;;;4978224;28;92428;-72
2023/03/31 06:13:29;;;;;;;2.72;0.28;;;14.10;61.90;;;;;;4971687;28;93217;-73
2023/03/31 06:15:57;;;;;;;1.40;0.30;;;14.30;60.50;;;;;;4975795;28;92284;-71
2023/03/31 06:18:23;;;;;;;2.28;0.30;;;14.30;60.60;;;;;;4984099;28;92789;-72
2023/03/31 06:20:50;;;;;;;2.53;0.20;;;14.40;60.40;;;;;;4972486;28;92358;-71
2023/03/31 06:23:16;;;;;;;3.63;0.13;;;14.40;61.10;;;;;;4971501;28;94171;-71
2023/03/31 06:25:42;;;;;;;2.85;0.20;;;14.50;59.10;;;;;;4977929;28;93883;-72
2023/03/31 06:28:08;;;;;;;1.60;0.28;;;14.60;59.50;;;;;;4968989;28;92567;-70
2023/03/31 06:30:34;;;;;;;2.33;0.10;;;14.60;58.60;;;;;;4986095;28;92096;-70
2023/03/31 06:33:00;;;;;;;3.40;0.20;;;14.70;59.50;;;;;;4970758;28;92703;-69
2023/03/31 06:35:26;;;;;;;1.52;0.20;;;14.80;59.70;;;;;;4982572;28;92875;-71
2023/03/31 06:37:51;;;;;;;1.90;0.20;;;14.90;58.80;;;;;;4983552;28;92267;-72
2023/03/31 06:40:18;;;;;;;1.85;0.10;;;14.90;58.80;;;;;;4977669;28;91348;-71
2023/03/31 06:42:43;;;;;;;3.53;0.30;;;14.90;58.70;;;;;;4974512;28;94103;-69
2023/03/31 06:45:09;;;;;;;3.33;0.50;;;15.00;59.20;;;;;;4970974;28;93184;-70
2023/03/31 06:47:37;;;;;;;5.07;0.73;;;15.00;59.60;;;;;;4985668;28;93578;-71
2023/03/31 06:50:04;;;;;;;7.32;1.20;;;15.00;63.10;;;;;;4986901;28;92808;-70
2023/03/31 06:52:30;;;;;;;6.80;1.08;;;15.00;64.50;;;;;;4995899;28;95043;-72
2023/03/31 06:54:56;;;;;;;9.20;1.20;;;14.80;64.80;;;;;;4992808;28;92851;-71
2023/03/31 06:57:22;;;;;;;7.32;1.38;;;14.80;65.80;;;;;;4979541;28;92453;-70
2023/03/31 06:59:47;;;;;;;7.95;1.42;;;14.70;66.50;;;;;;4983986;28;92425;-69
2023/03/31 07:02:14;;;;;;;5.20;2.10;;;14.70;66.40;;;;;;4989480;28;93712;-71
2023/03/31 07:04:39;;;;;;;7.13;1.85;;;14.80;66.60;;;;;;4975281;28;91738;-71
2023/03/31 07:07:05;;;;;;;9.48;2.08;;;14.80;67.60;;;;;;4975040;28;93654;-73
2023/03/31 07:09:30;;;;;;;10.00;2.45;;;14.70;67.70;;;;;;4983437;28;92642;-73
2023/03/31 07:11:56;;;;;;;9.32;2.40;;;14.60;68.30;;;;;;4986945;28;93484;-68
2023/03/31 07:14:22;;;;;;;8.52;2.45;;;14.60;68.80;;;;;;4982548;28;92884;-70
2023/03/31 07:16:49;;;;;;;13.43;2.00;;;14.50;70.80;;;;;;4976059;28;92397;-70
2023/03/31 07:19:15;;;;;;;8.30;2.05;;;14.40;71.50;;;;;;4965497;28;92439;-72
2023/03/31 07:21:40;;;;;;;8.95;2.47;;;14.50;72.30;;;;;;4981286;28;93499;-70
2023/03/31 07:24:06;;;;;;;12.65;2.53;;;14.60;71.70;;;;;;4991682;28;93405;-70
2023/03/31 07:26:32;;;;;;;13.23;2.72;;;14.60;72.00;;;;;;4974589;28;92766;-72
2023/03/31 07:28:58;;;;;;;10.32;2.75;;;14.50;72.40;;;;;;4974431;28;91817;-70
2023/03/31 07:31:23;;;;;;;12.57;2.72;;;14.20;74.20;;;;;;4970016;28;93167;-68
2023/03/31 07:33:49;;;;;;;9.55;2.13;;;14.20;73.30;;;;;;4969805;28;92790;-72
2023/03/31 07:36:16;;;;;;;6.78;1.85;;;14.20;72.60;;;;;;4969229;28;93021;-73
2023/03/31 07:38:44;;;;;;;6.35;1.20;;;14.20;72.40;;;;;;4977196;28;92516;-70
2023/03/31 07:41:12;;;;;;;9.98;1.75;;;14.20;70.90;;;;;;4968762;28;92612;-71
2023/03/31 07:43:38;;;;;;;7.90;1.73;;;14.30;71.90;;;;;;4967654;28;92396;-71
2023/03/31 07:46:06;;;;;;;6.50;1.52;;;14.30;72.70;;;;;;4967846;28;92359;-72
2023/03/31 07:48:32;;;;;;;5.13;1.67;;;14.10;76.00;;;;;;4969879;28;92492;-70
2023/03/31 07:50:58;;;;;;;5.75;1.35;;;13.90;73.40;;;;;;4963820;28;94767;-70
2023/03/31 07:53:24;;;;;;;4.60;1.27;;;14.00;74.60;;;;;;4975218;28;92234;-70
2023/03/31 07:55:49;;;;;;;4.53;1.40;;;14.10;74.20;;;;;;4988000;28;92208;-70
2023/03/31 07:58:15;;;;;;;6.28;1.15;;;14.10;72.40;;;;;;4991966;28;92431;-69
2023/03/31 08:00:41;;;;;;;2.95;1.20;;;14.20;71.90;;;;;;4990468;28;93680;-70
2023/03/31 08:03:07;;;;;;;4.43;1.30;;;14.20;70.20;;;;;;4995363;28;94421;-70
2023/03/31 08:05:32;;;;;;;5.20;1.58;;;14.20;71.00;;;;;;4977026;28;93019;-70
2023/03/31 08:07:58;;;;;;;4.55;1.58;;;14.30;71.70;;;;;;4974963;28;92127;-72
2023/03/31 08:10:25;;;;;;;4.25;1.50;;;14.50;70.20;;;;;;4974063;28;93132;-71
2023/03/31 08:12:51;;;;;;;3.70;1.42;;;14.70;69.80;;;;;;4972863;28;92334;-69
2023/03/31 08:15:18;;;;;;;5.38;1.45;;;14.80;70.10;;;;;;4974507;28;92859;-70
2023/03/31 08:17:44;;;;;;;4.25;1.20;;;14.90;71.40;;;;;;4987070;28;91477;-71
2023/03/31 08:20:10;;;;;;;4.35;1.10;;;15.00;72.10;;;;;;4979200;28;92611;-71
2023/03/31 08:22:37;;;;;;;4.10;1.40;;;15.00;72.60;;;;;;4985115;28;92815;-71
2023/03/31 08:25:04;;;;;;;6.00;1.23;;;15.10;71.70;;;;;;4974291;28;93456;-71
2023/03/31 08:27:34;;;;;;;6.47;1.52;;;15.10;72.20;;;;;;4968792;28;92476;-71
2023/03/31 08:30:03;;;;;;;6.55;1.10;;;15.20;72.40;;;;;;4976487;28;93580;-71
2023/03/31 08:32:30;;;;;;;6.18;1.80;;;15.30;72.20;;;;;;4975654;28;92722;-72
2023/03/31 08:34:56;;;;;;;3.92;1.35;;;15.50;72.60;;;;;;4978347;28;92670;-71
2023/03/31 08:37:21;;;;;;;6.70;1.55;;;15.70;71.90;;;;;;4994993;28;92524;-71
2023/03/31 08:39:47;;;;;;;4.63;1.70;;;15.90;70.50;;;;;;4983173;28;92422;-71
2023/03/31 08:42:17;;;;;;;6.00;1.38;;;16.00;70.60;;;;;;4971754;28;93607;-70
2023/03/31 08:44:58;;;;;;;5.70;2.00;;;16.20;68.20;;;;;;4967929;28;92713;-71
2023/03/31 08:47:26;;;;;;;7.03;1.90;;;16.20;68.40;;;;;;4973508;28;92511;-72
2023/03/31 08:50:20;;;;;;;4.53;1.90;;;16.30;67.50;;;;;;4972748;28;93591;-71
2023/03/31 08:52:58;;;;;;;9.20;2.42;;;16.40;65.90;;;;;;4977199;28;92508;-70
2023/03/31 08:55:31;;;;;;;5.13;2.17;;;16.30;65.90;;;;;;4981107;28;92439;-72
2023/03/31 08:58:15;;;;;;;6.65;2.78;;;16.40;65.50;;;;;;4974604;28;92412;-70
2023/03/31 09:01:18;;;;;;;6.63;2.25;;;16.50;65.60;;;;;;4963759;28;92829;-73
2023/03/31 09:03:44;;;;;;;4.05;1.85;;;16.40;65.60;;;;;;4973303;28;93842;-72
2023/03/31 09:06:24;;;;;;;6.22;2.70;;;16.30;65.20;;;;;;4978394;28;92523;-71
2023/03/31 09:08:53;;;;;;;4.90;1.95;;;16.20;65.20;;;;;;4973088;28;91952;-71
2023/03/31 09:11:40;;;;;;;6.13;2.42;;;16.10;66.70;;;;;;4973574;28;93571;-71
2023/03/31 09:14:39;;;;;;;4.80;1.98;;;16.20;68.00;;;;;;4960439;28;93162;-70
2023/03/31 09:17:16;;;;;;;7.20;2.10;;;15.90;66.70;;;;;;4972645;28;94622;-71
2023/03/31 09:19:58;;;;;;;7.93;2.05;;;15.70;67.60;;;;;;4970768;28;94051;-71
2023/03/31 09:22:34;;;;;;;5.93;1.80;;;15.80;67.10;;;;;;4977151;28;93040;-70
2023/03/31 09:25:10;;;;;;;5.65;1.90;;;16.70;66.30;;;;;;4956764;28;92723;-71
2023/03/31 09:27:40;;;;;;;6.40;1.55;;;18.80;62.00;;;;;;4963979;28;92599;-73
2023/03/31 09:30:28;;;;;;;4.20;1.65;;;19.50;60.20;;;;;;4965938;28;93723;-72
2023/03/31 09:33:12;;;;;;;4.30;1.45;;;19.40;58.30;;;;;;4961540;28;94406;-73
2023/03/31 09:35:38;;;;;;;3.10;1.20;;;18.80;60.30;;;;;;4971844;28;92909;-76
2023/03/31 09:38:03;;;;;;;5.72;1.10;;;18.80;60.20;;;;;;4976628;28;92814;-71
2023/03/31 09:40:29;;;;;;;5.30;1.05;;;20.30;59.10;;;;;;4986800;28;92383;-73
2023/03/31 09:43:04;;;;;;;2.80;1.00;;;22.20;54.30;;;;;;4965241;28;95035;-72
2023/03/31 09:45:32;;;;;;;2.78;0.98;;;21.50;53.20;;;;;;4975535;28;94469;-71
2023/03/31 09:48:02;;;;;;;2.55;0.80;;;20.60;54.70;;;;;;4971513;28;92422;-72
2023/03/31 09:50:30;;;;;;;2.65;0.90;;;19.70;56.90;;;;;;4970773;28;92604;-73
2023/03/31 09:52:58;;;;;;;4.32;1.40;;;18.90;59.10;;;;;;4973932;28;93268;-70
2023/03/31 09:55:31;;;;;;;2.55;1.08;;;18.50;59.70;;;;;;4970445;28;92805;-70
2023/03/31 09:58:00;;;;;;;4.55;1.10;;;18.40;61.40;;;;;;4977046;28;92345;-69
2023/03/31 10:00:27;;;;;;;3.47;1.20;;;18.40;63.00;;;;;;4968956;28;91622;-70
2023/03/31 10:02:54;;;;;;;6.35;1.30;;;18.00;63.80;;;;;;4972499;28;93248;-70
2023/03/31 10:05:29;;;;;;;3.33;0.82;;;17.80;64.00;;;;;;4974032;28;93236;-71
2023/03/31 10:08:10;;;;;;;7.78;1.75;;;17.50;65.00;;;;;;4974114;28;93600;-71
2023/03/31 10:10:36;;;;;;;6.50;1.30;;;17.20;66.40;;;;;;4971735;28;93897;-70
2023/03/31 10:13:09;;;;;;;6.45;1.55;;;16.90;67.60;;;;;;4971316;28;92513;-74
2023/03/31 10:15:37;;;;;;;7.00;1.30;;;16.80;69.90;;;;;;4970474;28;92360;-72
2023/03/31 10:18:03;;;;;;;4.32;1.10;;;16.50;71.00;;;;;;4968992;28;93890;-73
2023/03/31 10:20:43;;;;;;;5.22;1.20;;;16.50;70.90;;;;;;4966203;28;93426;-73
2023/03/31 10:23:27;;;;;;;4.93;0.90;;;16.50;72.20;;;;;;4967505;28;94194;-70
2023/03/31 10:25:53;;;;;;;6.25;1.00;;;16.60;70.40;;;;;;4967670;28;93239;-71
2023/03/31 10:28:20;;;;;;;3.05;0.80;;;16.50;68.10;;;;;;4971841;28;92960;-70
2023/03/31 10:30:56;;;;;;;4.82;0.98;;;16.30;66.50;;;;;;4969202;28;93049;-72
2023/03/31 10:33:25;;;;;;;3.75;0.90;;;16.30;64.20;;;;;;4973079;28;94957;-71
2023/03/31 10:35:57;;;;;;;3.03;0.73;;;16.20;61.70;;;;;;4964717;28;93101;-71
2023/03/31 10:38:46;;;;;;;3.55;0.95;;;16.10;60.50;;;;;;4973940;28;92547;-72
2023/03/31 10:41:21;;;;;;;3.13;0.80;;;16.00;61.30;;;;;;4964116;28;94246;-70
2023/03/31 10:43:52;;;;;;;2.70;0.93;;;16.00;58.00;;;;;;4967843;28;92959;-74
2023/03/31 10:46:19;;;;;;;5.10;1.05;;;16.10;57.00;;;;;;4974431;28;92422;-72
2023/03/31 10:48:45;;;;;;;3.45;1.02;;;16.20;56.90;;;;;;4966453;28;93667;-71
2023/03/31 10:51:16;;;;;;;6.60;1.52;;;16.50;57.80;;;;;;4967837;28;91886;-73
2023/03/31 10:53:47;;;;;;;3.03;0.82;;;16.90;58.90;;;;;;4975042;28;93370;-70
2023/03/31 10:56:21;;;;;;;4.82;1.20;;;17.40;57.10;;;;;;4965619;28;93438;-71
2023/03/31 10:59:12;;;;;;;4.85;1.80;;;17.50;57.20;;;;;;4965545;28;93483;-69
2023/03/31 11:02:11;;;;;;;4.90;1.48;;;17.50;58.80;;;;;;4966699;28;92907;-70
2023/03/31 11:05:31;;;;;;;4.40;1.88;;;17.80;55.70;;;;;;4968496;28;93681;-72
2023/03/31 11:08:18;;;;;;;5.95;2.92;;;18.30;56.30;;;;;;4982817;28;93263;-69
2023/03/31 11:10:49;;;;;;;3.65;1.65;;;18.70;55.80;;;;;;4967801;28;92662;-71
2023/03/31 11:13:45;;;;;;;4.55;2.33;;;18.90;54.80;;;;;;4966659;28;92608;-73
2023/03/31 11:16:30;;;;;;;5.75;2.70;;;19.00;53.70;;;;;;4961982;28;93218;-70
2023/03/31 11:19:29;;;;;;;8.90;2.70;;;18.90;56.30;;;;;;4964376;28;93376;-73
2023/03/31 11:22:12;;;;;;;3.70;1.83;;;19.10;56.70;;;;;;4965810;28;92522;-69
2023/03/31 11:25:08;;;;;;;3.67;1.40;;;19.20;55.00;;;;;;4967081;28;93396;-70
2023/03/31 11:27:39;;;;;;;4.50;1.35;;;19.10;57.00;;;;;;4967138;28;93644;-70
2023/03/31 11:30:21;;;;;;;2.67;1.10;;;18.70;57.50;;;;;;4958477;28;93989;-73
2023/03/31 11:33:11;;;;;;;5.65;1.27;;;18.20;57.70;;;;;;4964253;28;93562;-71
2023/03/31 11:35:55;;;;;;;12.10;1.30;;;17.90;58.00;;;;;;4960731;28;93348;-73
2023/03/31 11:39:26;;;;;;;2.50;1.00;;;17.80;58.60;;;;;;4968626;28;92757;-72
2023/03/31 11:41:56;;;;;;;2.35;0.82;;;18.40;60.20;;;;;;4923864;28;94429;-71
2023/03/31 11:44:35;;;;;;;6.25;1.20;;;19.10;57.20;;;;;;4956031;28;92851;-71
2023/03/31 11:47:07;;;;;;;3.63;1.17;;;19.60;59.40;;;;;;4969239;28;92254;-70
2023/03/31 11:49:41;;;;;;;3.92;1.10;;;20.20;54.60;;;;;;4967154;28;93128;-70
2023/03/31 11:52:16;;;;;;;4.22;0.57;;;20.60;57.30;;;;;;4971707;28;92580;-71
2023/03/31 11:54:48;;;;;;;7.80;0.70;;;20.20;56.60;;;;;;4964405;28;94202;-71
2023/03/31 11:57:30;;;;;;;4.45;0.50;;;19.40;59.30;;;;;;4961023;28;92610;-71
2023/03/31 12:00:02;;;;;;;3.38;0.43;;;18.50;60.80;;;;;;4959672;28;93826;-70
2023/03/31 12:03:07;;;;;;;3.13;0.32;;;17.70;58.50;;;;;;4965793;28;92864;-71
2023/03/31 12:05:39;;;;;;;5.60;0.28;;;17.10;59.20;;;;;;4964556;28;93675;-71
2023/03/31 12:08:16;;;;;;;4.20;0.30;;;16.70;60.50;;;;;;4965191;28;92892;-70
2023/03/31 12:11:00;;;;;;;1.83;0.30;;;16.60;62.80;;;;;;4967570;28;93718;-72
2023/03/31 12:13:38;;;;;;;2.13;0.52;;;16.50;61.70;;;;;;4958845;28;92819;-71
2023/03/31 12:16:08;;;;;;;3.28;0.40;;;16.50;62.30;;;;;;4968297;28;93886;-70
2023/03/31 12:19:01;;;;;;;1.88;0.30;;;16.60;61.90;;;;;;4967500;28;92263;-72
2023/03/31 12:21:29;;;;;;;3.50;0.40;;;16.50;62.60;;;;;;4972468;28;94682;-72
2023/03/31 12:23:55;;;;;;;4.85;0.32;;;16.20;64.20;;;;;;4969323;28;93223;-71
2023/03/31 12:26:30;;;;;;;3.63;0.30;;;16.50;63.80;;;;;;4975749;28;92741;-69
2023/03/31 12:28:59;;;;;;;5.78;0.40;;;16.70;63.60;;;;;;4970693;28;92168;-71
2023/03/31 12:31:27;;;;;;;2.95;0.60;;;17.10;63.90;;;;;;4968776;28;92704;-70
2023/03/31 12:34:04;;;;;;;3.70;0.63;;;17.90;63.60;;;;;;4958162;28;93456;-71
2023/03/31 12:36:38;;;;;;;3.30;0.65;;;18.60;61.60;;;;;;4968752;28;92961;-70
2023/03/31 12:39:35;;;;;;;3.17;0.70;;;19.20;57.60;;;;;;4971539;28;91364;-73
2023/03/31 12:42:34;;;;;;;5.70;1.10;;;20.00;56.40;;;;;;4970884;28;94533;-71
2023/03/31 12:45:02;;;;;;;3.30;0.73;;;20.40;54.10;;;;;;4972597;28;92793;-70
2023/03/31 12:47:49;;;;;;;4.30;0.60;;;20.30;54.10;;;;;;4969041;28;93972;-68
2023/03/31 12:50:37;;;;;;;5.88;0.90;;;19.90;52.60;;;;;;4962894;28;94658;-70
2023/03/31 12:53:15;;;;;;;4.13;0.70;;;19.40;53.10;;;;;;4966695;28;92772;-70
2023/03/31 12:55:50;;;;;;;2.22;0.50;;;19.10;53.00;;;;;;4975421;28;92647;-71
2023/03/31 12:58:40;;;;;;;2.90;0.60;;;18.80;53.00;;;;;;4971772;28;92162;-69
2023/03/31 13:01:22;;;;;;;3.13;0.75;;;18.60;53.50;;;;;;4975020;28;92240;-69
2023/03/31 13:04:05;;;;;;;3.03;0.80;;;18.40;54.30;;;;;;4965794;28;93469;-71
2023/03/31 13:06:31;;;;;;;9.05;0.80;;;18.10;54.80;;;;;;4959885;28;92400;-72
2023/03/31 13:09:21;;;;;;;4.35;0.75;;;17.60;56.30;;;;;;4961312;28;92161;-71
2023/03/31 13:11:48;;;;;;;5.60;0.65;;;17.30;56.90;;;;;;4960803;28;92202;-71
2023/03/31 13:14:21;;;;;;;3.63;0.68;;;16.70;59.40;;;;;;4960639;28;95444;-70
2023/03/31 13:16:49;;;;;;;4.82;0.47;;;16.10;62.90;;;;;;4969324;28;93891;-68